createdAt,value
2022-12-23T00:01:17.564Z,1.60
2022-12-23T00:03:45.153Z,1.13
2022-12-23T00:06:13.417Z,1.50
2022-12-23T00:08:40.906Z,1.30
2022-12-23T00:11:13.939Z,1.20
2022-12-23T00:13:59.194Z,1.20
2022-12-23T00:16:28.132Z,1.13
2022-12-23T00:18:55.903Z,1.50
2022-12-23T00:21:23.637Z,1.13
2022-12-23T00:23:51.953Z,1.17
2022-12-23T00:26:20.741Z,1.30
2022-12-23T00:28:48.337Z,1.20
2022-12-23T00:31:18.184Z,1.23
2022-12-23T00:33:47.965Z,1.10
2022-12-23T00:36:16.390Z,1.00
2022-12-23T00:39:01.644Z,0.97
2022-12-23T00:41:46.724Z,1.03
2022-12-23T00:44:14.360Z,0.90
2022-12-23T00:46:41.954Z,1.20
2022-12-23T00:49:30.040Z,1.10
2022-12-23T00:51:57.476Z,1.00
2022-12-23T00:54:25.065Z,0.90
2022-12-23T00:56:52.543Z,0.80
2022-12-23T00:59:20.028Z,0.90
2022-12-23T01:02:05.052Z,0.80
2022-12-23T01:04:51.348Z,0.80
2022-12-23T01:07:18.855Z,1.00
2022-12-23T01:09:46.317Z,0.90
2022-12-23T01:12:13.843Z,0.80
2022-12-23T01:14:41.487Z,1.00
2022-12-23T01:17:09.458Z,0.80
2022-12-23T01:19:38.500Z,0.80
2022-12-23T01:22:05.957Z,0.60
2022-12-23T01:24:33.931Z,0.70
2022-12-23T01:27:01.628Z,0.63
2022-12-23T01:29:29.796Z,0.73
2022-12-23T01:31:57.252Z,0.87
2022-12-23T01:34:24.816Z,0.77
2022-12-23T01:36:53.665Z,0.70
2022-12-23T01:39:21.120Z,0.80
2022-12-23T01:42:17.438Z,0.70
2022-12-23T01:44:52.774Z,0.93
2022-12-23T01:47:35.138Z,0.73
2022-12-23T01:50:05.555Z,0.60
2022-12-23T01:52:36.966Z,0.63
2022-12-23T01:55:04.564Z,0.70
2022-12-23T01:57:32.015Z,0.57
2022-12-23T02:00:16.874Z,0.67
2022-12-23T02:03:02.727Z,0.70
2022-12-23T02:05:30.375Z,0.60
2022-12-23T02:08:16.511Z,0.60
2022-12-23T02:10:51.966Z,0.60
2022-12-23T02:13:25.672Z,0.70
2022-12-23T02:16:17.619Z,0.80
2022-12-23T02:18:53.373Z,0.70
2022-12-23T02:21:29.393Z,0.70
2022-12-23T02:24:12.892Z,0.63
2022-12-23T02:26:58.346Z,0.70
2022-12-23T02:29:47.079Z,0.60
2022-12-23T02:32:18.121Z,0.60
2022-12-23T02:34:50.946Z,0.60
2022-12-23T02:37:21.735Z,0.70
2022-12-23T02:39:54.429Z,0.40
2022-12-23T02:42:23.295Z,0.60
2022-12-23T02:44:55.149Z,0.70
2022-12-23T02:47:25.860Z,0.40
2022-12-23T02:49:55.296Z,0.60
2022-12-23T02:52:24.637Z,0.50
2022-12-23T02:54:53.819Z,0.60
2022-12-23T02:57:23.213Z,0.40
2022-12-23T02:59:52.019Z,0.50
2022-12-23T03:02:20.049Z,0.70
2022-12-23T03:04:48.998Z,0.50
2022-12-23T03:07:19.167Z,0.40
2022-12-23T03:09:51.976Z,0.60
2022-12-23T03:12:23.540Z,0.50
2022-12-23T03:15:03.132Z,0.60
2022-12-23T03:17:38.583Z,0.70
2022-12-23T03:20:10.521Z,0.60
2022-12-23T03:22:39.851Z,0.60
2022-12-23T03:25:10.692Z,0.40
2022-12-23T03:27:40.837Z,0.50
2022-12-23T03:30:09.142Z,0.50
2022-12-23T03:32:38.764Z,0.57
2022-12-23T03:35:08.650Z,0.60
2022-12-23T03:37:38.747Z,0.50
2022-12-23T03:40:09.987Z,0.40
2022-12-23T03:42:38.983Z,0.50
2022-12-23T03:48:00.160Z,0.67
2022-12-23T03:50:28.164Z,0.50
2022-12-23T03:52:59.104Z,0.60
2022-12-23T03:55:28.424Z,0.90
2022-12-23T03:58:00.780Z,0.50
2022-12-23T04:00:29.737Z,0.60
2022-12-23T04:03:00.101Z,0.60
2022-12-23T04:05:28.936Z,0.50
2022-12-23T04:08:01.535Z,0.47
2022-12-23T04:10:29.201Z,0.57
2022-12-23T04:12:56.747Z,0.50
2022-12-23T04:15:25.576Z,0.50
2022-12-23T04:17:53.768Z,0.50
2022-12-23T04:20:21.241Z,0.43
2022-12-23T04:22:48.865Z,0.40
2022-12-23T04:25:18.356Z,0.50
2022-12-23T04:27:45.857Z,0.50
2022-12-23T04:30:14.085Z,0.50
2022-12-23T04:32:41.732Z,0.30
2022-12-23T04:35:09.512Z,0.50
2022-12-23T04:37:37.015Z,0.60
2022-12-23T04:40:04.868Z,0.50
2022-12-23T04:42:33.693Z,0.57
2022-12-23T04:45:01.522Z,0.53
2022-12-23T04:47:29.020Z,0.60
2022-12-23T04:49:56.456Z,0.60
2022-12-23T04:52:23.928Z,0.50
2022-12-23T04:54:51.375Z,0.70
2022-12-23T04:57:18.964Z,0.60
2022-12-23T04:59:47.778Z,0.50
2022-12-23T05:02:15.323Z,0.50
2022-12-23T05:04:43.055Z,0.40
2022-12-23T05:07:10.487Z,0.60
2022-12-23T05:09:37.925Z,0.37
2022-12-23T05:12:05.471Z,0.50
2022-12-23T05:14:32.931Z,0.40
2022-12-23T05:17:07.325Z,0.50
2022-12-23T05:19:36.623Z,0.50
2022-12-23T05:22:04.127Z,0.50
2022-12-23T05:24:31.547Z,0.30
2022-12-23T05:27:00.354Z,0.40
2022-12-23T05:29:28.138Z,0.50
2022-12-23T05:31:55.729Z,0.60
2022-12-23T05:34:24.659Z,0.60
2022-12-23T05:36:52.177Z,0.60
2022-12-23T05:39:19.651Z,0.60
2022-12-23T05:41:47.090Z,0.70
2022-12-23T05:44:14.505Z,0.50
2022-12-23T05:46:42.010Z,0.63
2022-12-23T05:49:09.524Z,0.63
2022-12-23T05:51:38.361Z,0.70
2022-12-23T05:54:05.826Z,0.80
2022-12-23T05:56:33.251Z,1.03
2022-12-23T05:59:00.678Z,0.60
2022-12-23T06:01:28.269Z,0.70
2022-12-23T06:03:55.949Z,0.70
2022-12-23T06:06:23.541Z,0.70
2022-12-23T06:08:59.212Z,0.60
2022-12-23T06:11:27.170Z,0.67
2022-12-23T06:13:54.659Z,0.90
2022-12-23T06:16:22.240Z,0.60
2022-12-23T06:18:49.784Z,0.73
2022-12-23T06:21:17.253Z,0.70
2022-12-23T06:23:44.747Z,0.60
2022-12-23T06:26:13.564Z,0.70
2022-12-23T06:28:41.139Z,0.70
2022-12-23T06:31:08.645Z,0.60
2022-12-23T06:33:36.103Z,0.90
2022-12-23T06:36:03.520Z,0.60
2022-12-23T06:38:30.991Z,0.70
2022-12-23T06:40:58.471Z,0.60
2022-12-23T06:43:27.374Z,0.70
2022-12-23T06:45:55.238Z,0.60
2022-12-23T06:48:22.749Z,0.60
2022-12-23T06:50:50.229Z,0.53
2022-12-23T06:53:17.675Z,0.70
2022-12-23T06:55:45.146Z,0.70
2022-12-23T06:58:12.600Z,0.70
2022-12-23T07:00:41.463Z,0.70
2022-12-23T07:03:09.045Z,0.70
2022-12-23T07:05:37.824Z,0.80
2022-12-23T07:08:05.750Z,0.70
2022-12-23T07:10:34.446Z,0.60
2022-12-23T07:13:02.190Z,0.90
2022-12-23T07:15:29.603Z,0.70
2022-12-23T07:17:58.376Z,0.70
2022-12-23T07:20:25.807Z,0.70
2022-12-23T07:22:54.867Z,0.80
2022-12-23T07:25:22.337Z,0.67
2022-12-23T07:27:49.863Z,0.70
2022-12-23T07:30:17.520Z,0.67
2022-12-23T07:32:48.018Z,0.70
2022-12-23T07:35:16.941Z,0.90
2022-12-23T07:37:44.571Z,0.70
2022-12-23T07:40:12.905Z,0.73
2022-12-23T07:42:45.722Z,0.70
2022-12-23T07:45:14.145Z,0.80
2022-12-23T07:47:41.638Z,0.73
2022-12-23T07:50:09.505Z,0.83
2022-12-23T07:52:38.362Z,0.80
2022-12-23T07:55:06.395Z,0.70
2022-12-23T07:57:37.759Z,0.80
2022-12-23T08:00:07.018Z,0.80
2022-12-23T08:02:40.054Z,0.90
2022-12-23T08:05:08.185Z,0.87
2022-12-23T08:07:35.827Z,1.10
2022-12-23T08:10:04.953Z,0.83
2022-12-23T08:12:32.483Z,0.93
2022-12-23T08:15:00.008Z,1.00
2022-12-23T08:17:27.557Z,0.97
2022-12-23T08:19:55.034Z,1.00
2022-12-23T08:22:22.564Z,0.90
2022-12-23T08:24:50.015Z,1.00
2022-12-23T08:27:18.855Z,0.90
2022-12-23T08:29:46.333Z,1.40
2022-12-23T08:32:14.137Z,1.20
2022-12-23T08:34:41.570Z,1.40
2022-12-23T08:37:08.981Z,1.00
2022-12-23T08:39:36.499Z,1.20
2022-12-23T08:42:04.475Z,0.97
2022-12-23T08:44:33.249Z,0.90
2022-12-23T08:47:00.833Z,0.97
2022-12-23T08:49:28.319Z,1.13
2022-12-23T08:51:55.809Z,1.30
2022-12-23T08:54:23.739Z,1.00
2022-12-23T08:56:51.617Z,0.90
2022-12-23T08:59:19.972Z,0.83
2022-12-23T09:01:49.227Z,1.00
2022-12-23T09:04:16.926Z,1.00
2022-12-23T09:06:45.312Z,0.80
2022-12-23T09:09:14.200Z,1.00
2022-12-23T09:11:41.793Z,0.90
2022-12-23T09:14:10.118Z,1.10
2022-12-23T09:16:37.865Z,0.70
2022-12-23T09:19:07.607Z,0.90
2022-12-23T09:21:35.183Z,0.83
2022-12-23T09:24:02.662Z,0.80
2022-12-23T09:26:31.050Z,0.90
2022-12-23T09:28:58.872Z,1.20
2022-12-23T09:31:30.691Z,1.00
2022-12-23T09:34:03.955Z,1.00
2022-12-23T09:36:32.853Z,1.00
2022-12-23T09:39:00.487Z,0.90
2022-12-23T09:41:35.625Z,0.80
2022-12-23T09:44:12.901Z,0.90
2022-12-23T09:46:45.716Z,0.93
2022-12-23T09:49:14.299Z,1.07
2022-12-23T09:51:43.134Z,0.80
2022-12-23T09:54:17.133Z,0.80
2022-12-23T09:56:48.329Z,0.80
2022-12-23T09:59:20.977Z,1.00
2022-12-23T10:01:52.294Z,0.80
2022-12-23T10:04:31.203Z,0.67
2022-12-23T10:07:09.597Z,1.00
2022-12-23T10:09:38.437Z,0.90
2022-12-23T10:12:07.661Z,0.87
2022-12-23T10:14:36.584Z,0.93
2022-12-23T10:17:08.068Z,0.70
2022-12-23T10:19:41.687Z,0.77
2022-12-23T10:22:16.078Z,1.00
2022-12-23T10:24:45.207Z,0.80
2022-12-23T10:27:19.188Z,0.80
2022-12-23T10:29:46.676Z,0.70
2022-12-23T10:32:21.972Z,0.90
2022-12-23T10:34:51.212Z,0.70
2022-12-23T10:37:25.189Z,0.80
2022-12-23T10:39:58.761Z,0.80
2022-12-23T10:42:29.015Z,0.80
2022-12-23T10:45:05.299Z,0.80
2022-12-23T10:47:39.266Z,0.80
2022-12-23T10:50:16.031Z,0.83
2022-12-23T10:52:46.351Z,0.90
2022-12-23T10:55:17.389Z,0.80
2022-12-23T10:57:44.868Z,0.90
2022-12-23T11:00:16.649Z,0.90
2022-12-23T11:02:47.934Z,1.00
2022-12-23T11:05:16.666Z,1.23
2022-12-23T11:07:46.633Z,0.80
2022-12-23T11:10:16.671Z,0.90
2022-12-23T11:12:45.549Z,0.90
2022-12-23T11:15:25.619Z,0.90
2022-12-23T11:17:58.904Z,0.83
2022-12-23T11:20:26.524Z,0.83
2022-12-23T11:22:56.323Z,0.80
2022-12-23T11:25:28.383Z,0.87
2022-12-23T11:27:58.756Z,0.90
2022-12-23T11:30:26.293Z,0.90
2022-12-23T11:32:53.863Z,0.80
2022-12-23T11:35:25.777Z,0.90
2022-12-23T11:37:53.385Z,0.90
2022-12-23T11:40:26.508Z,0.90
2022-12-23T11:42:55.497Z,0.87
2022-12-23T11:45:23.910Z,0.93
2022-12-23T11:47:51.352Z,0.70
2022-12-23T11:50:26.766Z,0.90
2022-12-23T11:52:55.721Z,0.90
2022-12-23T11:55:26.565Z,0.60
2022-12-23T11:57:54.100Z,1.03
2022-12-23T12:00:22.880Z,0.60
2022-12-23T12:02:51.596Z,0.90
2022-12-23T12:05:22.719Z,0.90
2022-12-23T12:07:50.970Z,0.83
2022-12-23T12:10:19.384Z,0.70
2022-12-23T12:12:52.949Z,0.90
2022-12-23T12:15:26.324Z,0.90
2022-12-23T12:17:56.029Z,0.70
2022-12-23T12:20:27.594Z,0.90
2022-12-23T12:22:57.337Z,0.60
2022-12-23T12:25:27.012Z,0.80
2022-12-23T12:27:58.946Z,0.60
2022-12-23T12:30:30.485Z,0.90
2022-12-23T12:33:00.838Z,0.80
2022-12-23T12:35:31.941Z,0.87
2022-12-23T12:38:01.784Z,0.90
2022-12-23T12:40:31.894Z,0.90
2022-12-23T12:43:03.326Z,0.90
2022-12-23T12:45:34.752Z,0.87
2022-12-23T12:48:18.077Z,0.73
2022-12-23T12:50:51.783Z,0.90
2022-12-23T12:53:20.271Z,0.80
2022-12-23T12:55:50.527Z,0.80
2022-12-23T12:58:21.340Z,0.83
2022-12-23T13:00:55.351Z,0.90
2022-12-23T13:03:31.301Z,1.20
2022-12-23T13:06:07.759Z,1.00
2022-12-23T13:08:48.729Z,1.13
2022-12-23T13:11:22.202Z,1.00
2022-12-23T13:14:00.130Z,1.00
2022-12-23T13:16:34.598Z,1.00
2022-12-23T13:19:05.199Z,0.90
2022-12-23T13:21:36.883Z,1.13
2022-12-23T13:24:08.684Z,1.20
2022-12-23T13:26:38.289Z,1.20
2022-12-23T13:29:21.839Z,1.40
2022-12-23T13:31:53.943Z,1.10
2022-12-23T13:34:28.344Z,1.07
2022-12-23T13:37:01.878Z,1.10
2022-12-23T13:39:38.271Z,1.40
2022-12-23T13:42:06.595Z,1.20
2022-12-23T13:44:35.619Z,1.10
2022-12-23T13:47:09.025Z,1.50
2022-12-23T13:49:44.858Z,1.20
2022-12-23T13:52:13.491Z,1.30
2022-12-23T13:54:50.065Z,1.10
2022-12-23T13:57:28.753Z,1.33
2022-12-23T14:00:05.974Z,1.23
2022-12-23T14:02:41.995Z,1.10
2022-12-23T14:05:28.695Z,1.30
2022-12-23T14:07:56.395Z,1.13
2022-12-23T14:10:25.062Z,1.37
2022-12-23T14:12:53.243Z,1.20
2022-12-23T14:15:38.723Z,1.20
2022-12-23T14:18:14.351Z,1.20
2022-12-23T14:20:48.255Z,1.20
2022-12-23T14:23:25.000Z,1.23
2022-12-23T14:25:56.856Z,1.10
2022-12-23T14:28:31.345Z,1.20
2022-12-23T14:30:59.021Z,1.10
2022-12-23T14:33:28.766Z,1.20
2022-12-23T14:35:57.742Z,1.30
2022-12-23T14:38:26.760Z,1.20
2022-12-23T14:40:55.517Z,1.30
2022-12-23T14:43:27.689Z,0.90
2022-12-23T14:45:55.526Z,1.00
2022-12-23T14:48:41.727Z,1.00
2022-12-23T14:51:24.103Z,1.00
2022-12-23T14:54:10.484Z,1.03
2022-12-23T14:56:48.712Z,1.10
2022-12-23T14:59:20.320Z,1.23
2022-12-23T15:01:48.890Z,1.10
2022-12-23T15:04:19.075Z,1.53
2022-12-23T15:06:48.835Z,1.30
2022-12-23T15:09:21.635Z,1.17
2022-12-23T15:11:49.194Z,1.10
2022-12-23T15:14:19.722Z,1.10
2022-12-23T15:16:47.268Z,1.20
2022-12-23T15:19:22.969Z,1.17
2022-12-23T15:22:00.442Z,1.07
2022-12-23T15:24:32.932Z,1.00
2022-12-23T15:29:49.380Z,1.40
2022-12-23T15:32:17.263Z,1.20
2022-12-23T15:34:45.012Z,1.07
2022-12-23T15:37:16.134Z,1.03
2022-12-23T15:39:45.071Z,1.20
2022-12-23T15:42:21.577Z,1.23
2022-12-23T15:44:49.025Z,1.10
2022-12-23T15:47:24.293Z,1.10
2022-12-23T15:49:51.814Z,1.10
2022-12-23T15:52:21.579Z,1.40
2022-12-23T15:54:54.436Z,2.17
2022-12-23T15:57:23.496Z,1.50
2022-12-23T15:59:51.114Z,1.40
2022-12-23T16:05:08.829Z,1.13
2022-12-23T16:07:38.427Z,2.00
2022-12-23T16:10:12.730Z,1.30
2022-12-23T16:12:41.191Z,1.30
2022-12-23T16:15:20.181Z,1.40
2022-12-23T16:17:47.813Z,1.30
2022-12-23T16:20:20.249Z,1.13
2022-12-23T16:22:51.110Z,1.20
2022-12-23T16:25:20.751Z,1.23
2022-12-23T16:27:49.358Z,1.10
2022-12-23T16:30:17.903Z,1.23
2022-12-23T16:32:48.104Z,1.37
2022-12-23T16:35:24.422Z,1.23
2022-12-23T16:37:53.562Z,1.20
2022-12-23T16:40:21.125Z,1.27
2022-12-23T16:42:48.558Z,1.80
2022-12-23T16:45:16.067Z,1.50
2022-12-23T16:47:43.724Z,1.53
2022-12-23T16:50:13.039Z,1.53
2022-12-23T16:52:40.840Z,1.40
2022-12-23T16:55:15.300Z,1.40
2022-12-23T16:57:42.968Z,1.40
2022-12-23T17:00:13.728Z,1.40
2022-12-23T17:02:41.223Z,1.60
2022-12-23T17:05:11.308Z,1.60
2022-12-23T17:07:44.865Z,1.70
2022-12-23T17:10:14.782Z,1.73
2022-12-23T17:12:42.577Z,1.43
2022-12-23T17:15:15.794Z,1.83
2022-12-23T17:17:43.318Z,1.43
2022-12-23T17:20:10.968Z,1.30
2022-12-23T17:22:38.729Z,1.50
2022-12-23T17:25:06.641Z,2.03
2022-12-23T17:27:35.470Z,2.00
2022-12-23T17:30:03.051Z,1.60
2022-12-23T17:32:30.515Z,1.47
2022-12-23T17:34:57.972Z,1.47
2022-12-23T17:37:25.478Z,1.50
2022-12-23T17:39:52.950Z,1.50
2022-12-23T17:42:25.611Z,1.40
2022-12-23T17:44:54.754Z,1.50
2022-12-23T17:47:23.170Z,1.60
2022-12-23T17:49:50.623Z,1.20
2022-12-23T17:52:19.028Z,1.50
2022-12-23T17:54:46.926Z,2.30
2022-12-23T17:57:17.395Z,1.60
2022-12-23T17:59:47.685Z,1.50
2022-12-23T18:02:21.502Z,1.77
2022-12-23T18:04:49.023Z,1.40
2022-12-23T18:07:16.560Z,1.27
2022-12-23T18:09:44.071Z,1.70
2022-12-23T18:12:24.923Z,1.57
2022-12-23T18:14:52.784Z,1.30
2022-12-23T18:17:21.603Z,1.57
2022-12-23T18:19:49.081Z,1.20
2022-12-23T18:22:18.390Z,1.40
2022-12-23T18:24:46.305Z,1.10
2022-12-23T18:27:14.944Z,1.20
2022-12-23T18:29:42.475Z,1.20
2022-12-23T18:32:15.158Z,1.10
2022-12-23T18:34:43.981Z,1.30
2022-12-23T18:37:11.418Z,1.30
2022-12-23T18:39:38.838Z,0.97
2022-12-23T18:42:06.397Z,1.30
2022-12-23T18:44:33.824Z,1.30
2022-12-23T18:47:01.640Z,1.40
2022-12-23T18:49:29.154Z,1.10
2022-12-23T18:51:57.954Z,1.50
2022-12-23T18:54:25.381Z,1.87
2022-12-23T18:56:52.812Z,1.60
2022-12-23T18:59:27.366Z,1.57
2022-12-23T19:01:57.154Z,1.40
2022-12-23T19:04:24.653Z,1.30
2022-12-23T19:06:52.253Z,1.43
2022-12-23T19:09:22.222Z,1.30
2022-12-23T19:11:50.873Z,1.40
2022-12-23T19:14:18.351Z,1.43
2022-12-23T19:16:51.221Z,1.40
2022-12-23T19:19:19.291Z,1.20
2022-12-23T19:21:46.884Z,1.40
2022-12-23T19:24:14.317Z,1.60
2022-12-23T19:26:43.166Z,1.23
2022-12-23T19:29:10.596Z,1.60
2022-12-23T19:31:38.078Z,1.40
2022-12-23T19:34:09.674Z,1.40
2022-12-23T19:36:41.991Z,1.30
2022-12-23T19:39:11.855Z,1.47
2022-12-23T19:41:39.325Z,1.50
2022-12-23T19:44:08.127Z,1.43
2022-12-23T19:46:35.681Z,1.20
2022-12-23T19:49:03.140Z,1.30
2022-12-23T19:51:30.560Z,1.53
2022-12-23T19:53:58.065Z,1.20
2022-12-23T19:56:26.097Z,1.00
2022-12-23T19:58:53.598Z,1.10
2022-12-23T20:01:23.942Z,1.10
2022-12-23T20:03:51.980Z,1.20
2022-12-23T20:06:21.238Z,1.20
2022-12-23T20:08:48.947Z,1.20
2022-12-23T20:11:17.350Z,0.90
2022-12-23T20:13:45.114Z,0.90
2022-12-23T20:16:13.244Z,1.10
2022-12-23T20:18:42.101Z,1.00
2022-12-23T20:21:09.636Z,0.93
2022-12-23T20:23:37.072Z,1.00
2022-12-23T20:26:05.232Z,1.10
2022-12-23T20:28:32.789Z,1.00
2022-12-23T20:31:01.741Z,1.00
2022-12-23T20:33:29.339Z,1.10
2022-12-23T20:35:58.323Z,1.00
2022-12-23T20:38:25.975Z,1.00
2022-12-23T20:40:53.437Z,0.77
2022-12-23T20:43:21.226Z,0.90
2022-12-23T20:45:50.915Z,0.87
2022-12-23T20:48:18.427Z,0.90
2022-12-23T20:50:45.874Z,0.90
2022-12-23T20:53:14.884Z,1.00
2022-12-23T20:55:42.355Z,0.80
2022-12-23T20:58:27.684Z,0.93
2022-12-23T21:00:55.141Z,1.00
2022-12-23T21:03:22.701Z,1.00
2022-12-23T21:05:50.228Z,1.00
2022-12-23T21:08:18.990Z,0.90
2022-12-23T21:10:52.567Z,0.93
2022-12-23T21:13:20.010Z,0.90
2022-12-23T21:15:47.503Z,1.00
2022-12-23T21:18:15.049Z,1.00
2022-12-23T21:20:42.515Z,0.93
2022-12-23T21:23:10.088Z,1.00
2022-12-23T21:25:38.908Z,0.90
2022-12-23T21:28:06.375Z,0.90
2022-12-23T21:30:34.368Z,0.90
2022-12-23T21:33:03.495Z,0.90
2022-12-23T21:35:30.984Z,1.13
2022-12-23T21:37:58.431Z,1.10
2022-12-23T21:40:25.962Z,1.07
2022-12-23T21:42:54.723Z,0.97
2022-12-23T21:45:22.144Z,1.03
2022-12-23T21:47:49.614Z,0.83
2022-12-23T21:50:17.083Z,0.80
2022-12-23T21:52:44.575Z,1.13
2022-12-23T21:55:15.620Z,1.10
2022-12-23T21:57:43.078Z,1.00
2022-12-23T22:00:12.555Z,1.10
2022-12-23T22:02:40.057Z,1.20
2022-12-23T22:05:08.201Z,0.90
2022-12-23T22:07:35.653Z,1.00
2022-12-23T22:10:03.223Z,1.03
2022-12-23T22:12:30.680Z,1.10
2022-12-23T22:14:58.129Z,1.20
2022-12-23T22:17:26.975Z,0.90
2022-12-23T22:19:54.458Z,1.00
2022-12-23T22:22:21.889Z,1.20
2022-12-23T22:24:49.306Z,1.10
2022-12-23T22:27:16.826Z,1.20
2022-12-23T22:29:44.335Z,1.00
2022-12-23T22:32:11.786Z,1.10
2022-12-23T22:34:40.703Z,1.10
2022-12-23T22:37:08.137Z,1.30
2022-12-23T22:39:35.599Z,1.10
2022-12-23T22:42:03.018Z,1.10
2022-12-23T22:44:30.442Z,1.10
2022-12-23T22:46:57.955Z,1.20
2022-12-23T22:49:25.920Z,1.10
2022-12-23T22:51:54.961Z,1.23
2022-12-23T22:54:22.432Z,1.37
2022-12-23T22:56:49.849Z,1.30
2022-12-23T22:59:19.896Z,1.10
2022-12-23T23:01:47.559Z,1.10
2022-12-23T23:04:15.047Z,1.20
2022-12-23T23:06:42.734Z,1.13
2022-12-23T23:09:13.648Z,1.27
2022-12-23T23:11:41.218Z,1.30
2022-12-23T23:14:08.682Z,1.50
2022-12-23T23:16:36.163Z,1.30
2022-12-23T23:19:04.203Z,1.00
2022-12-23T23:21:32.062Z,1.20
2022-12-23T23:23:59.576Z,1.23
2022-12-23T23:26:28.370Z,1.13
2022-12-23T23:28:55.841Z,1.10
2022-12-23T23:34:10.782Z,1.30
2022-12-23T23:36:38.327Z,1.10
2022-12-23T23:39:05.864Z,1.07
2022-12-23T23:41:35.760Z,1.10
2022-12-23T23:44:03.245Z,1.10
2022-12-23T23:46:31.757Z,1.00
2022-12-23T23:48:59.348Z,1.10
2022-12-23T23:51:27.037Z,1.20
2022-12-23T23:53:54.512Z,1.20
2022-12-23T23:56:25.864Z,0.80
2022-12-23T23:58:55.625Z,1.50
